sensor_id;sensor_type;location;lat;lon;timestamp;P1;durP1;ratioP1;P2;durP2;ratioP2
62588;SDS011;58504;48.770;9.148;2023-04-03T00:01:38;0.40;;;0.40;;
62588;SDS011;58504;48.770;9.148;2023-04-03T00:04:05;0.22;;;0.22;;
62588;SDS011;58504;48.770;9.148;2023-04-03T00:06:32;0.40;;;0.40;;
62588;SDS011;58504;48.770;9.148;2023-04-03T00:09:00;0.60;;;0.60;;
62588;SDS011;58504;48.770;9.148;2023-04-03T00:11:28;0.43;;;0.43;;
62588;SDS011;58504;48.770;9.148;2023-04-03T00:13:55;0.50;;;0.50;;
62588;SDS011;58504;48.770;9.148;2023-04-03T00:16:22;0.40;;;0.40;;
62588;SDS011;58504;48.770;9.148;2023-04-03T00:18:49;0.40;;;0.30;;
62588;SDS011;58504;48.770;9.148;2023-04-03T00:21:16;0.60;;;0.60;;
62588;SDS011;58504;48.770;9.148;2023-04-03T00:23:42;0.70;;;0.70;;
62588;SDS011;58504;48.770;9.148;2023-04-03T00:26:09;0.68;;;0.68;;
62588;SDS011;58504;48.770;9.148;2023-04-03T00:28:37;0.43;;;0.43;;
62588;SDS011;58504;48.770;9.148;2023-04-03T00:31:04;0.40;;;0.40;;
62588;SDS011;58504;48.770;9.148;2023-04-03T00:33:31;0.40;;;0.40;;
62588;SDS011;58504;48.770;9.148;2023-04-03T00:35:57;0.35;;;0.35;;
62588;SDS011;58504;48.770;9.148;2023-04-03T00:38:24;0.77;;;0.75;;
62588;SDS011;58504;48.770;9.148;2023-04-03T00:40:51;1.05;;;1.05;;
62588;SDS011;58504;48.770;9.148;2023-04-03T00:43:19;0.47;;;0.47;;
62588;SDS011;58504;48.770;9.148;2023-04-03T00:45:48;0.80;;;0.40;;
62588;SDS011;58504;48.770;9.148;2023-04-03T00:48:17;0.47;;;0.47;;
62588;SDS011;58504;48.770;9.148;2023-04-03T00:50:47;0.50;;;0.50;;
62588;SDS011;58504;48.770;9.148;2023-04-03T00:53:16;0.50;;;0.50;;
62588;SDS011;58504;48.770;9.148;2023-04-03T00:55:46;0.60;;;0.55;;
62588;SDS011;58504;48.770;9.148;2023-04-03T00:58:14;0.57;;;0.52;;
62588;SDS011;58504;48.770;9.148;2023-04-03T01:00:44;0.50;;;0.50;;
62588;SDS011;58504;48.770;9.148;2023-04-03T01:03:16;2.37;;;0.40;;
62588;SDS011;58504;48.770;9.148;2023-04-03T01:05:43;0.63;;;0.63;;
62588;SDS011;58504;48.770;9.148;2023-04-03T01:08:10;0.60;;;0.60;;
62588;SDS011;58504;48.770;9.148;2023-04-03T01:10:37;0.32;;;0.32;;
62588;SDS011;58504;48.770;9.148;2023-04-03T01:13:16;0.60;;;0.60;;
62588;SDS011;58504;48.770;9.148;2023-04-03T01:15:45;0.52;;;0.52;;
62588;SDS011;58504;48.770;9.148;2023-04-03T01:18:12;0.50;;;0.50;;
62588;SDS011;58504;48.770;9.148;2023-04-03T01:24:11;0.60;;;0.60;;
62588;SDS011;58504;48.770;9.148;2023-04-03T01:26:46;0.73;;;0.63;;
62588;SDS011;58504;48.770;9.148;2023-04-03T01:29:15;0.80;;;0.80;;
62588;SDS011;58504;48.770;9.148;2023-04-03T01:31:48;0.50;;;0.50;;
62588;SDS011;58504;48.770;9.148;2023-04-03T01:34:18;0.68;;;0.68;;
62588;SDS011;58504;48.770;9.148;2023-04-03T01:36:45;0.68;;;0.50;;
62588;SDS011;58504;48.770;9.148;2023-04-03T01:39:12;0.40;;;0.40;;
62588;SDS011;58504;48.770;9.148;2023-04-03T01:41:39;0.55;;;0.55;;
62588;SDS011;58504;48.770;9.148;2023-04-03T01:44:06;0.47;;;0.47;;
62588;SDS011;58504;48.770;9.148;2023-04-03T01:46:32;0.60;;;0.60;;
62588;SDS011;58504;48.770;9.148;2023-04-03T01:49:01;0.60;;;0.60;;
62588;SDS011;58504;48.770;9.148;2023-04-03T01:51:28;0.60;;;0.60;;
62588;SDS011;58504;48.770;9.148;2023-04-03T01:53:55;0.52;;;0.52;;
62588;SDS011;58504;48.770;9.148;2023-04-03T01:56:21;0.47;;;0.47;;
62588;SDS011;58504;48.770;9.148;2023-04-03T01:58:48;0.50;;;0.50;;
62588;SDS011;58504;48.770;9.148;2023-04-03T02:01:15;0.65;;;0.65;;
62588;SDS011;58504;48.770;9.148;2023-04-03T02:03:42;0.80;;;0.55;;
62588;SDS011;58504;48.770;9.148;2023-04-03T02:06:10;0.50;;;0.50;;
62588;SDS011;58504;48.770;9.148;2023-04-03T02:08:36;0.40;;;0.40;;
62588;SDS011;58504;48.770;9.148;2023-04-03T02:11:03;0.60;;;0.60;;
62588;SDS011;58504;48.770;9.148;2023-04-03T02:13:30;0.60;;;0.60;;
62588;SDS011;58504;48.770;9.148;2023-04-03T02:15:57;0.60;;;0.60;;
62588;SDS011;58504;48.770;9.148;2023-04-03T02:18:24;0.52;;;0.52;;
62588;SDS011;58504;48.770;9.148;2023-04-03T02:20:50;0.40;;;0.40;;
62588;SDS011;58504;48.770;9.148;2023-04-03T02:23:18;0.43;;;0.43;;
62588;SDS011;58504;48.770;9.148;2023-04-03T02:25:45;0.50;;;0.50;;
62588;SDS011;58504;48.770;9.148;2023-04-03T02:28:14;0.70;;;0.70;;
62588;SDS011;58504;48.770;9.148;2023-04-03T02:30:40;0.35;;;0.35;;
62588;SDS011;58504;48.770;9.148;2023-04-03T02:33:07;0.57;;;0.57;;
62588;SDS011;58504;48.770;9.148;2023-04-03T02:35:34;0.55;;;0.55;;
62588;SDS011;58504;48.770;9.148;2023-04-03T02:38:02;0.40;;;0.40;;
62588;SDS011;58504;48.770;9.148;2023-04-03T02:40:30;0.50;;;0.50;;
62588;SDS011;58504;48.770;9.148;2023-04-03T02:42:56;0.50;;;0.50;;
62588;SDS011;58504;48.770;9.148;2023-04-03T02:45:23;0.60;;;0.60;;
62588;SDS011;58504;48.770;9.148;2023-04-03T02:47:50;0.70;;;0.65;;
62588;SDS011;58504;48.770;9.148;2023-04-03T02:50:16;0.77;;;0.77;;
62588;SDS011;58504;48.770;9.148;2023-04-03T02:52:43;0.52;;;0.52;;
62588;SDS011;58504;48.770;9.148;2023-04-03T02:55:12;0.70;;;0.65;;
62588;SDS011;58504;48.770;9.148;2023-04-03T02:57:41;0.50;;;0.50;;
62588;SDS011;58504;48.770;9.148;2023-04-03T03:00:08;0.57;;;0.57;;
62588;SDS011;58504;48.770;9.148;2023-04-03T03:02:35;0.30;;;0.30;;
62588;SDS011;58504;48.770;9.148;2023-04-03T03:05:02;0.68;;;0.45;;
62588;SDS011;58504;48.770;9.148;2023-04-03T03:07:30;0.63;;;0.63;;
62588;SDS011;58504;48.770;9.148;2023-04-03T03:09:57;0.47;;;0.47;;
62588;SDS011;58504;48.770;9.148;2023-04-03T03:12:24;0.60;;;0.60;;
62588;SDS011;58504;48.770;9.148;2023-04-03T03:14:52;0.65;;;0.50;;
62588;SDS011;58504;48.770;9.148;2023-04-03T03:17:19;0.60;;;0.60;;
62588;SDS011;58504;48.770;9.148;2023-04-03T03:19:45;0.43;;;0.43;;
62588;SDS011;58504;48.770;9.148;2023-04-03T03:22:12;0.43;;;0.43;;
62588;SDS011;58504;48.770;9.148;2023-04-03T03:24:39;0.60;;;0.60;;
62588;SDS011;58504;48.770;9.148;2023-04-03T03:27:06;0.52;;;0.50;;
62588;SDS011;58504;48.770;9.148;2023-04-03T03:29:32;0.77;;;0.77;;
62588;SDS011;58504;48.770;9.148;2023-04-03T03:32:00;0.90;;;0.60;;
62588;SDS011;58504;48.770;9.148;2023-04-03T03:34:27;0.50;;;0.50;;
62588;SDS011;58504;48.770;9.148;2023-04-03T03:36:54;0.70;;;0.70;;
62588;SDS011;58504;48.770;9.148;2023-04-03T03:39:21;0.55;;;0.55;;
62588;SDS011;58504;48.770;9.148;2023-04-03T03:41:47;0.50;;;0.50;;
62588;SDS011;58504;48.770;9.148;2023-04-03T03:44:15;0.50;;;0.50;;
62588;SDS011;58504;48.770;9.148;2023-04-03T03:46:42;0.50;;;0.50;;
62588;SDS011;58504;48.770;9.148;2023-04-03T03:49:10;0.52;;;0.50;;
62588;SDS011;58504;48.770;9.148;2023-04-03T03:51:37;0.68;;;0.68;;
62588;SDS011;58504;48.770;9.148;2023-04-03T03:54:04;0.50;;;0.50;;
62588;SDS011;58504;48.770;9.148;2023-04-03T03:56:31;0.40;;;0.40;;
62588;SDS011;58504;48.770;9.148;2023-04-03T03:58:58;0.60;;;0.60;;
62588;SDS011;58504;48.770;9.148;2023-04-03T04:01:25;0.47;;;0.47;;
62588;SDS011;58504;48.770;9.148;2023-04-03T04:03:52;0.60;;;0.60;;
62588;SDS011;58504;48.770;9.148;2023-04-03T04:06:21;0.52;;;0.52;;
62588;SDS011;58504;48.770;9.148;2023-04-03T04:08:48;0.50;;;0.50;;
62588;SDS011;58504;48.770;9.148;2023-04-03T04:11:15;0.60;;;0.60;;
62588;SDS011;58504;48.770;9.148;2023-04-03T04:13:42;0.68;;;0.68;;
62588;SDS011;58504;48.770;9.148;2023-04-03T04:16:08;0.70;;;0.50;;
62588;SDS011;58504;48.770;9.148;2023-04-03T04:18:35;0.57;;;0.57;;
62588;SDS011;58504;48.770;9.148;2023-04-03T04:21:02;0.40;;;0.40;;
62588;SDS011;58504;48.770;9.148;2023-04-03T04:23:30;0.60;;;0.60;;
62588;SDS011;58504;48.770;9.148;2023-04-03T04:25:57;0.35;;;0.35;;
62588;SDS011;58504;48.770;9.148;2023-04-03T04:28:24;0.55;;;0.55;;
62588;SDS011;58504;48.770;9.148;2023-04-03T04:30:50;0.63;;;0.63;;
62588;SDS011;58504;48.770;9.148;2023-04-03T04:33:17;0.57;;;0.50;;
62588;SDS011;58504;48.770;9.148;2023-04-03T04:35:46;0.50;;;0.50;;
62588;SDS011;58504;48.770;9.148;2023-04-03T04:38:13;0.50;;;0.50;;
62588;SDS011;58504;48.770;9.148;2023-04-03T04:40:41;0.88;;;0.65;;
62588;SDS011;58504;48.770;9.148;2023-04-03T04:43:08;0.40;;;0.40;;
62588;SDS011;58504;48.770;9.148;2023-04-03T04:45:35;0.52;;;0.52;;
62588;SDS011;58504;48.770;9.148;2023-04-03T04:48:02;0.63;;;0.63;;
62588;SDS011;58504;48.770;9.148;2023-04-03T04:50:29;0.50;;;0.50;;
62588;SDS011;58504;48.770;9.148;2023-04-03T04:52:56;0.45;;;0.45;;
62588;SDS011;58504;48.770;9.148;2023-04-03T04:55:23;0.30;;;0.30;;
62588;SDS011;58504;48.770;9.148;2023-04-03T04:57:51;0.40;;;0.40;;
62588;SDS011;58504;48.770;9.148;2023-04-03T05:00:18;0.75;;;0.60;;
62588;SDS011;58504;48.770;9.148;2023-04-03T05:02:45;0.50;;;0.50;;
62588;SDS011;58504;48.770;9.148;2023-04-03T05:05:12;0.50;;;0.50;;
62588;SDS011;58504;48.770;9.148;2023-04-03T05:07:39;0.43;;;0.43;;
62588;SDS011;58504;48.770;9.148;2023-04-03T05:10:07;0.52;;;0.45;;
62588;SDS011;58504;48.770;9.148;2023-04-03T05:12:35;0.50;;;0.50;;
62588;SDS011;58504;48.770;9.148;2023-04-03T05:15:03;0.63;;;0.63;;
62588;SDS011;58504;48.770;9.148;2023-04-03T05:17:30;1.00;;;0.98;;
62588;SDS011;58504;48.770;9.148;2023-04-03T05:19:57;0.50;;;0.50;;
62588;SDS011;58504;48.770;9.148;2023-04-03T05:22:24;0.43;;;0.43;;
62588;SDS011;58504;48.770;9.148;2023-04-03T05:24:51;0.70;;;0.70;;
62588;SDS011;58504;48.770;9.148;2023-04-03T05:27:17;0.65;;;0.65;;
62588;SDS011;58504;48.770;9.148;2023-04-03T05:29:44;0.70;;;0.60;;
62588;SDS011;58504;48.770;9.148;2023-04-03T05:32:12;0.32;;;0.32;;
62588;SDS011;58504;48.770;9.148;2023-04-03T05:34:39;0.50;;;0.50;;
62588;SDS011;58504;48.770;9.148;2023-04-03T05:37:06;0.50;;;0.50;;
62588;SDS011;58504;48.770;9.148;2023-04-03T05:39:32;0.50;;;0.45;;
62588;SDS011;58504;48.770;9.148;2023-04-03T05:41:59;0.40;;;0.40;;
62588;SDS011;58504;48.770;9.148;2023-04-03T05:44:26;0.50;;;0.50;;
62588;SDS011;58504;48.770;9.148;2023-04-03T05:46:53;0.60;;;0.60;;
62588;SDS011;58504;48.770;9.148;2023-04-03T05:49:21;0.38;;;0.38;;
62588;SDS011;58504;48.770;9.148;2023-04-03T05:51:48;0.43;;;0.43;;
62588;SDS011;58504;48.770;9.148;2023-04-03T05:54:17;0.50;;;0.50;;
62588;SDS011;58504;48.770;9.148;2023-04-03T05:56:46;0.57;;;0.57;;
62588;SDS011;58504;48.770;9.148;2023-04-03T05:59:13;0.47;;;0.47;;
62588;SDS011;58504;48.770;9.148;2023-04-03T06:01:40;0.60;;;0.60;;
62588;SDS011;58504;48.770;9.148;2023-04-03T06:04:06;0.40;;;0.40;;
62588;SDS011;58504;48.770;9.148;2023-04-03T06:06:44;0.30;;;0.30;;
62588;SDS011;58504;48.770;9.148;2023-04-03T06:09:12;0.30;;;0.30;;
62588;SDS011;58504;48.770;9.148;2023-04-03T06:11:40;0.40;;;0.40;;
62588;SDS011;58504;48.770;9.148;2023-04-03T06:14:07;0.82;;;0.52;;
62588;SDS011;58504;48.770;9.148;2023-04-03T06:16:34;1.05;;;0.70;;
62588;SDS011;58504;48.770;9.148;2023-04-03T06:19:01;0.47;;;0.47;;
62588;SDS011;58504;48.770;9.148;2023-04-03T06:21:29;0.40;;;0.40;;
62588;SDS011;58504;48.770;9.148;2023-04-03T06:23:57;1.35;;;0.40;;
62588;SDS011;58504;48.770;9.148;2023-04-03T06:26:24;0.50;;;0.50;;
62588;SDS011;58504;48.770;9.148;2023-04-03T06:28:52;0.60;;;0.60;;
62588;SDS011;58504;48.770;9.148;2023-04-03T06:31:19;0.55;;;0.55;;
62588;SDS011;58504;48.770;9.148;2023-04-03T06:33:45;0.40;;;0.40;;
62588;SDS011;58504;48.770;9.148;2023-04-03T06:36:12;0.60;;;0.60;;
62588;SDS011;58504;48.770;9.148;2023-04-03T06:38:39;0.32;;;0.32;;
62588;SDS011;58504;48.770;9.148;2023-04-03T06:41:07;0.60;;;0.60;;
62588;SDS011;58504;48.770;9.148;2023-04-03T06:43:34;2.22;;;1.13;;
62588;SDS011;58504;48.770;9.148;2023-04-03T06:46:01;1.88;;;1.40;;
62588;SDS011;58504;48.770;9.148;2023-04-03T06:48:27;4.18;;;1.42;;
62588;SDS011;58504;48.770;9.148;2023-04-03T06:50:54;1.75;;;1.30;;
62588;SDS011;58504;48.770;9.148;2023-04-03T06:53:21;2.00;;;1.10;;
62588;SDS011;58504;48.770;9.148;2023-04-03T06:55:49;2.05;;;1.23;;
62588;SDS011;58504;48.770;9.148;2023-04-03T06:58:17;1.30;;;1.20;;
62588;SDS011;58504;48.770;9.148;2023-04-03T07:00:44;2.42;;;1.15;;
62588;SDS011;58504;48.770;9.148;2023-04-03T07:03:12;1.23;;;1.10;;
62588;SDS011;58504;48.770;9.148;2023-04-03T07:05:39;4.50;;;0.88;;
62588;SDS011;58504;48.770;9.148;2023-04-03T07:08:07;2.35;;;1.10;;
62588;SDS011;58504;48.770;9.148;2023-04-03T07:10:34;1.40;;;1.00;;
62588;SDS011;58504;48.770;9.148;2023-04-03T07:13:01;5.20;;;0.85;;
62588;SDS011;58504;48.770;9.148;2023-04-03T07:15:29;1.10;;;0.98;;
62588;SDS011;58504;48.770;9.148;2023-04-03T07:17:56;0.80;;;0.80;;
62588;SDS011;58504;48.770;9.148;2023-04-03T07:20:23;1.10;;;0.80;;
62588;SDS011;58504;48.770;9.148;2023-04-03T07:22:50;1.00;;;1.00;;
62588;SDS011;58504;48.770;9.148;2023-04-03T07:25:17;1.33;;;0.70;;
62588;SDS011;58504;48.770;9.148;2023-04-03T07:27:44;0.95;;;0.82;;
62588;SDS011;58504;48.770;9.148;2023-04-03T07:30:11;1.95;;;0.98;;
62588;SDS011;58504;48.770;9.148;2023-04-03T07:32:40;0.88;;;0.88;;
62588;SDS011;58504;48.770;9.148;2023-04-03T07:35:07;0.85;;;0.85;;
62588;SDS011;58504;48.770;9.148;2023-04-03T07:37:34;1.00;;;0.90;;
62588;SDS011;58504;48.770;9.148;2023-04-03T07:40:01;0.63;;;0.63;;
62588;SDS011;58504;48.770;9.148;2023-04-03T07:42:29;0.70;;;0.70;;
62588;SDS011;58504;48.770;9.148;2023-04-03T07:44:56;1.45;;;0.77;;
62588;SDS011;58504;48.770;9.148;2023-04-03T07:47:23;0.88;;;0.80;;
62588;SDS011;58504;48.770;9.148;2023-04-03T07:49:51;0.70;;;0.70;;
62588;SDS011;58504;48.770;9.148;2023-04-03T07:52:18;1.45;;;0.77;;
62588;SDS011;58504;48.770;9.148;2023-04-03T07:54:45;1.35;;;0.80;;
62588;SDS011;58504;48.770;9.148;2023-04-03T07:57:11;0.57;;;0.57;;
62588;SDS011;58504;48.770;9.148;2023-04-03T07:59:38;2.58;;;0.65;;
62588;SDS011;58504;48.770;9.148;2023-04-03T08:02:08;2.15;;;0.65;;
62588;SDS011;58504;48.770;9.148;2023-04-03T08:04:35;1.15;;;0.75;;
62588;SDS011;58504;48.770;9.148;2023-04-03T08:07:03;0.95;;;0.88;;
62588;SDS011;58504;48.770;9.148;2023-04-03T08:09:30;0.82;;;0.75;;
62588;SDS011;58504;48.770;9.148;2023-04-03T08:11:57;2.35;;;0.40;;
62588;SDS011;58504;48.770;9.148;2023-04-03T08:14:24;0.80;;;0.80;;
62588;SDS011;58504;48.770;9.148;2023-04-03T08:16:51;0.70;;;0.70;;
62588;SDS011;58504;48.770;9.148;2023-04-03T08:19:18;0.88;;;0.70;;
62588;SDS011;58504;48.770;9.148;2023-04-03T08:21:45;1.75;;;0.73;;
62588;SDS011;58504;48.770;9.148;2023-04-03T08:24:13;1.60;;;0.70;;
62588;SDS011;58504;48.770;9.148;2023-04-03T08:26:40;1.55;;;1.00;;
62588;SDS011;58504;48.770;9.148;2023-04-03T08:29:09;0.95;;;0.73;;
62588;SDS011;58504;48.770;9.148;2023-04-03T08:31:36;0.70;;;0.70;;
62588;SDS011;58504;48.770;9.148;2023-04-03T08:34:04;1.98;;;1.40;;
62588;SDS011;58504;48.770;9.148;2023-04-03T08:36:31;0.77;;;0.77;;
62588;SDS011;58504;48.770;9.148;2023-04-03T08:38:58;0.95;;;0.70;;
62588;SDS011;58504;48.770;9.148;2023-04-03T08:41:29;0.95;;;0.80;;
62588;SDS011;58504;48.770;9.148;2023-04-03T08:44:04;2.08;;;0.50;;
62588;SDS011;58504;48.770;9.148;2023-04-03T08:46:44;0.80;;;0.80;;
62588;SDS011;58504;48.770;9.148;2023-04-03T08:49:21;0.70;;;0.63;;
62588;SDS011;58504;48.770;9.148;2023-04-03T08:51:52;1.08;;;0.85;;
62588;SDS011;58504;48.770;9.148;2023-04-03T08:54:22;0.60;;;0.50;;
62588;SDS011;58504;48.770;9.148;2023-04-03T08:56:54;0.70;;;0.68;;
62588;SDS011;58504;48.770;9.148;2023-04-03T08:59:25;0.95;;;0.70;;
62588;SDS011;58504;48.770;9.148;2023-04-03T09:01:54;0.82;;;0.80;;
62588;SDS011;58504;48.770;9.148;2023-04-03T09:04:23;0.70;;;0.70;;
62588;SDS011;58504;48.770;9.148;2023-04-03T09:06:54;0.80;;;0.80;;
62588;SDS011;58504;48.770;9.148;2023-04-03T09:09:29;0.70;;;0.70;;
62588;SDS011;58504;48.770;9.148;2023-04-03T09:12:03;0.60;;;0.60;;
62588;SDS011;58504;48.770;9.148;2023-04-03T09:14:40;1.77;;;0.90;;
62588;SDS011;58504;48.770;9.148;2023-04-03T09:17:13;2.50;;;0.70;;
62588;SDS011;58504;48.770;9.148;2023-04-03T09:19:47;0.75;;;0.75;;
62588;SDS011;58504;48.770;9.148;2023-04-03T09:22:22;0.80;;;0.80;;
62588;SDS011;58504;48.770;9.148;2023-04-03T09:24:52;1.95;;;0.98;;
62588;SDS011;58504;48.770;9.148;2023-04-03T09:27:24;1.35;;;0.90;;
62588;SDS011;58504;48.770;9.148;2023-04-03T09:29:52;0.80;;;0.70;;
62588;SDS011;58504;48.770;9.148;2023-04-03T09:32:22;0.50;;;0.50;;
62588;SDS011;58504;48.770;9.148;2023-04-03T09:34:53;2.05;;;0.93;;
62588;SDS011;58504;48.770;9.148;2023-04-03T09:40:27;0.90;;;0.65;;
62588;SDS011;58504;48.770;9.148;2023-04-03T09:42:57;1.27;;;0.68;;
62588;SDS011;58504;48.770;9.148;2023-04-03T09:45:27;1.05;;;0.80;;
62588;SDS011;58504;48.770;9.148;2023-04-03T09:48:06;0.80;;;0.80;;
62588;SDS011;58504;48.770;9.148;2023-04-03T09:50:51;1.35;;;0.55;;
62588;SDS011;58504;48.770;9.148;2023-04-03T09:53:28;0.65;;;0.60;;
62588;SDS011;58504;48.770;9.148;2023-04-03T09:55:57;0.70;;;0.70;;
62588;SDS011;58504;48.770;9.148;2023-04-03T09:58:27;0.70;;;0.70;;
62588;SDS011;58504;48.770;9.148;2023-04-03T10:00:56;0.60;;;0.60;;
62588;SDS011;58504;48.770;9.148;2023-04-03T10:03:25;0.50;;;0.30;;
62588;SDS011;58504;48.770;9.148;2023-04-03T10:05:54;0.52;;;0.52;;
62588;SDS011;58504;48.770;9.148;2023-04-03T10:08:24;0.47;;;0.47;;
62588;SDS011;58504;48.770;9.148;2023-04-03T10:11:07;3.30;;;0.60;;
62588;SDS011;58504;48.770;9.148;2023-04-03T10:13:37;0.57;;;0.57;;
62588;SDS011;58504;48.770;9.148;2023-04-03T10:16:17;0.63;;;0.63;;
62588;SDS011;58504;48.770;9.148;2023-04-03T10:18:48;0.90;;;0.70;;
62588;SDS011;58504;48.770;9.148;2023-04-03T10:21:24;1.27;;;0.60;;
62588;SDS011;58504;48.770;9.148;2023-04-03T10:24:00;1.02;;;0.80;;
62588;SDS011;58504;48.770;9.148;2023-04-03T10:26:37;1.38;;;0.60;;
62588;SDS011;58504;48.770;9.148;2023-04-03T10:29:15;0.52;;;0.52;;
62588;SDS011;58504;48.770;9.148;2023-04-03T10:31:53;1.52;;;0.90;;
62588;SDS011;58504;48.770;9.148;2023-04-03T10:34:27;4.55;;;0.63;;
62588;SDS011;58504;48.770;9.148;2023-04-03T10:36:58;0.82;;;0.80;;
62588;SDS011;58504;48.770;9.148;2023-04-03T10:39:34;1.85;;;1.23;;
62588;SDS011;58504;48.770;9.148;2023-04-03T10:42:08;2.97;;;1.42;;
62588;SDS011;58504;48.770;9.148;2023-04-03T10:44:45;2.88;;;1.08;;
62588;SDS011;58504;48.770;9.148;2023-04-03T10:47:21;4.35;;;1.58;;
62588;SDS011;58504;48.770;9.148;2023-04-03T10:49:55;3.08;;;1.50;;
62588;SDS011;58504;48.770;9.148;2023-04-03T10:52:28;8.20;;;1.73;;
62588;SDS011;58504;48.770;9.148;2023-04-03T10:55:06;5.82;;;1.98;;
62588;SDS011;58504;48.770;9.148;2023-04-03T10:57:43;2.53;;;1.65;;
62588;SDS011;58504;48.770;9.148;2023-04-03T11:00:15;4.80;;;1.58;;
62588;SDS011;58504;48.770;9.148;2023-04-03T11:02:48;5.88;;;1.92;;
62588;SDS011;58504;48.770;9.148;2023-04-03T11:05:21;5.57;;;1.73;;
62588;SDS011;58504;48.770;9.148;2023-04-03T11:07:54;2.35;;;1.25;;
62588;SDS011;58504;48.770;9.148;2023-04-03T11:10:24;1.40;;;1.30;;
62588;SDS011;58504;48.770;9.148;2023-04-03T11:12:59;2.47;;;1.15;;
62588;SDS011;58504;48.770;9.148;2023-04-03T11:15:34;3.05;;;1.38;;
62588;SDS011;58504;48.770;9.148;2023-04-03T11:18:02;3.40;;;1.73;;
62588;SDS011;58504;48.770;9.148;2023-04-03T11:20:32;2.55;;;1.80;;
62588;SDS011;58504;48.770;9.148;2023-04-03T11:23:03;3.53;;;1.58;;
62588;SDS011;58504;48.770;9.148;2023-04-03T11:25:33;1.88;;;1.33;;
62588;SDS011;58504;48.770;9.148;2023-04-03T11:28:03;2.72;;;1.55;;
62588;SDS011;58504;48.770;9.148;2023-04-03T11:30:32;2.20;;;1.10;;
62588;SDS011;58504;48.770;9.148;2023-04-03T11:33:18;1.75;;;1.63;;
62588;SDS011;58504;48.770;9.148;2023-04-03T11:35:52;2.60;;;1.38;;
62588;SDS011;58504;48.770;9.148;2023-04-03T11:38:23;5.97;;;2.22;;
62588;SDS011;58504;48.770;9.148;2023-04-03T11:40:55;3.40;;;1.50;;
62588;SDS011;58504;48.770;9.148;2023-04-03T11:43:24;1.40;;;1.30;;
62588;SDS011;58504;48.770;9.148;2023-04-03T11:45:54;2.35;;;0.90;;
62588;SDS011;58504;48.770;9.148;2023-04-03T12:09:24;3.17;;;1.10;;
62588;SDS011;58504;48.770;9.148;2023-04-03T12:11:58;1.63;;;1.05;;
62588;SDS011;58504;48.770;9.148;2023-04-03T12:14:26;5.53;;;1.98;;
62588;SDS011;58504;48.770;9.148;2023-04-03T12:16:54;0.88;;;0.80;;
62588;SDS011;58504;48.770;9.148;2023-04-03T12:19:34;3.63;;;1.77;;
62588;SDS011;58504;48.770;9.148;2023-04-03T12:22:13;3.40;;;0.90;;
62588;SDS011;58504;48.770;9.148;2023-04-03T12:24:43;1.92;;;1.35;;
62588;SDS011;58504;48.770;9.148;2023-04-03T12:30:11;2.65;;;1.10;;
62588;SDS011;58504;48.770;9.148;2023-04-03T12:32:44;5.40;;;1.15;;
62588;SDS011;58504;48.770;9.148;2023-04-03T12:35:30;1.48;;;0.95;;
62588;SDS011;58504;48.770;9.148;2023-04-03T12:41:19;0.90;;;0.82;;
62588;SDS011;58504;48.770;9.148;2023-04-03T12:43:58;1.42;;;1.23;;
62588;SDS011;58504;48.770;9.148;2023-04-03T12:46:44;0.68;;;0.68;;
62588;SDS011;58504;48.770;9.148;2023-04-03T12:49:17;1.20;;;1.10;;
62588;SDS011;58504;48.770;9.148;2023-04-03T12:51:52;1.88;;;1.15;;
62588;SDS011;58504;48.770;9.148;2023-04-03T12:54:20;1.27;;;1.00;;
62588;SDS011;58504;48.770;9.148;2023-04-03T12:56:53;1.52;;;0.80;;
62588;SDS011;58504;48.770;9.148;2023-04-03T12:59:35;0.73;;;0.70;;
62588;SDS011;58504;48.770;9.148;2023-04-03T13:02:07;1.13;;;1.00;;
62588;SDS011;58504;48.770;9.148;2023-04-03T13:04:43;0.63;;;0.63;;
62588;SDS011;58504;48.770;9.148;2023-04-03T13:07:18;0.40;;;0.40;;
62588;SDS011;58504;48.770;9.148;2023-04-03T13:09:54;1.92;;;0.90;;
62588;SDS011;58504;48.770;9.148;2023-04-03T13:12:25;0.80;;;0.60;;
62588;SDS011;58504;48.770;9.148;2023-04-03T13:14:52;1.10;;;1.00;;
62588;SDS011;58504;48.770;9.148;2023-04-03T13:17:20;0.80;;;0.80;;
62588;SDS011;58504;48.770;9.148;2023-04-03T13:19:47;1.90;;;0.82;;
62588;SDS011;58504;48.770;9.148;2023-04-03T13:22:19;2.72;;;0.85;;
62588;SDS011;58504;48.770;9.148;2023-04-03T13:24:53;1.55;;;0.93;;
62588;SDS011;58504;48.770;9.148;2023-04-03T13:27:23;2.20;;;0.70;;
62588;SDS011;58504;48.770;9.148;2023-04-03T13:29:52;0.88;;;0.80;;
62588;SDS011;58504;48.770;9.148;2023-04-03T13:32:23;0.68;;;0.57;;
62588;SDS011;58504;48.770;9.148;2023-04-03T13:34:52;2.85;;;0.50;;
62588;SDS011;58504;48.770;9.148;2023-04-03T13:37:20;1.92;;;1.05;;
62588;SDS011;58504;48.770;9.148;2023-04-03T13:39:56;0.73;;;0.73;;
62588;SDS011;58504;48.770;9.148;2023-04-03T13:42:27;2.22;;;0.65;;
62588;SDS011;58504;48.770;9.148;2023-04-03T13:45:16;0.75;;;0.73;;
62588;SDS011;58504;48.770;9.148;2023-04-03T13:47:46;0.75;;;0.52;;
62588;SDS011;58504;48.770;9.148;2023-04-03T13:50:15;0.70;;;0.70;;
62588;SDS011;58504;48.770;9.148;2023-04-03T13:52:45;5.05;;;0.52;;
62588;SDS011;58504;48.770;9.148;2023-04-03T13:55:21;1.73;;;0.75;;
62588;SDS011;58504;48.770;9.148;2023-04-03T13:57:53;5.65;;;0.70;;
62588;SDS011;58504;48.770;9.148;2023-04-03T14:00:29;1.75;;;0.75;;
62588;SDS011;58504;48.770;9.148;2023-04-03T14:03:00;0.60;;;0.60;;
62588;SDS011;58504;48.770;9.148;2023-04-03T14:05:26;0.82;;;0.77;;
62588;SDS011;58504;48.770;9.148;2023-04-03T14:07:54;1.80;;;1.00;;
62588;SDS011;58504;48.770;9.148;2023-04-03T14:10:22;2.90;;;0.90;;
62588;SDS011;58504;48.770;9.148;2023-04-03T14:12:48;6.13;;;1.25;;
62588;SDS011;58504;48.770;9.148;2023-04-03T14:15:18;1.13;;;0.50;;
62588;SDS011;58504;48.770;9.148;2023-04-03T14:17:49;1.30;;;0.55;;
62588;SDS011;58504;48.770;9.148;2023-04-03T14:20:18;0.68;;;0.60;;
62588;SDS011;58504;48.770;9.148;2023-04-03T14:22:46;3.35;;;0.77;;
62588;SDS011;58504;48.770;9.148;2023-04-03T14:25:14;0.45;;;0.45;;
62588;SDS011;58504;48.770;9.148;2023-04-03T14:27:42;3.47;;;0.80;;
62588;SDS011;58504;48.770;9.148;2023-04-03T14:30:12;0.93;;;0.68;;
62588;SDS011;58504;48.770;9.148;2023-04-03T14:32:43;0.45;;;0.45;;
62588;SDS011;58504;48.770;9.148;2023-04-03T14:35:11;0.70;;;0.70;;
62588;SDS011;58504;48.770;9.148;2023-04-03T14:37:39;1.08;;;0.47;;
62588;SDS011;58504;48.770;9.148;2023-04-03T14:40:07;2.22;;;0.70;;
62588;SDS011;58504;48.770;9.148;2023-04-03T14:42:36;1.55;;;0.60;;
62588;SDS011;58504;48.770;9.148;2023-04-03T14:45:04;0.82;;;0.50;;
62588;SDS011;58504;48.770;9.148;2023-04-03T14:47:33;0.50;;;0.50;;
62588;SDS011;58504;48.770;9.148;2023-04-03T14:50:06;0.77;;;0.77;;
62588;SDS011;58504;48.770;9.148;2023-04-03T14:52:34;1.48;;;0.55;;
62588;SDS011;58504;48.770;9.148;2023-04-03T14:55:02;0.50;;;0.40;;
62588;SDS011;58504;48.770;9.148;2023-04-03T14:57:31;2.65;;;0.70;;
62588;SDS011;58504;48.770;9.148;2023-04-03T14:59:59;0.95;;;0.73;;
62588;SDS011;58504;48.770;9.148;2023-04-03T15:02:29;0.93;;;0.93;;
62588;SDS011;58504;48.770;9.148;2023-04-03T15:04:57;0.63;;;0.63;;
62588;SDS011;58504;48.770;9.148;2023-04-03T15:07:29;0.82;;;0.82;;
62588;SDS011;58504;48.770;9.148;2023-04-03T15:09:58;1.00;;;0.80;;
62588;SDS011;58504;48.770;9.148;2023-04-03T15:12:27;0.80;;;0.80;;
62588;SDS011;58504;48.770;9.148;2023-04-03T15:14:54;1.50;;;0.77;;
62588;SDS011;58504;48.770;9.148;2023-04-03T15:17:21;0.75;;;0.75;;
62588;SDS011;58504;48.770;9.148;2023-04-03T15:19:49;1.25;;;0.68;;
62588;SDS011;58504;48.770;9.148;2023-04-03T15:22:16;1.40;;;0.73;;
62588;SDS011;58504;48.770;9.148;2023-04-03T15:24:48;0.50;;;0.50;;
62588;SDS011;58504;48.770;9.148;2023-04-03T15:27:15;2.40;;;0.50;;
62588;SDS011;58504;48.770;9.148;2023-04-03T15:29:42;0.57;;;0.57;;
62588;SDS011;58504;48.770;9.148;2023-04-03T15:32:09;0.95;;;0.70;;
62588;SDS011;58504;48.770;9.148;2023-04-03T15:34:36;0.60;;;0.60;;